sensor_id;sensor_type;location;lat;lon;timestamp;temperature;humidity
21355;DHT22;10835;50.148;19.760;2023-03-14T00:01:59;19.60;45.30
21355;DHT22;10835;50.148;19.760;2023-03-14T00:04:27;19.90;46.10
21355;DHT22;10835;50.148;19.760;2023-03-14T00:06:55;20.00;45.50
21355;DHT22;10835;50.148;19.760;2023-03-14T00:09:25;20.70;44.70
21355;DHT22;10835;50.148;19.760;2023-03-14T00:11:53;20.90;44.50
21355;DHT22;10835;50.148;19.760;2023-03-14T00:14:22;21.00;43.40
21355;DHT22;10835;50.148;19.760;2023-03-14T00:16:50;20.10;44.00
21355;DHT22;10835;50.148;19.760;2023-03-14T00:19:18;20.10;44.50
21355;DHT22;10835;50.148;19.760;2023-03-14T00:21:46;19.80;45.10
21355;DHT22;10835;50.148;19.760;2023-03-14T00:24:15;20.00;45.10
21355;DHT22;10835;50.148;19.760;2023-03-14T00:26:44;20.30;45.10
21355;DHT22;10835;50.148;19.760;2023-03-14T00:29:12;19.90;44.80
21355;DHT22;10835;50.148;19.760;2023-03-14T00:31:40;20.40;44.90
21355;DHT22;10835;50.148;19.760;2023-03-14T00:34:09;20.60;44.40
21355;DHT22;10835;50.148;19.760;2023-03-14T00:36:37;20.10;44.60
21355;DHT22;10835;50.148;19.760;2023-03-14T00:39:05;20.40;44.70
21355;DHT22;10835;50.148;19.760;2023-03-14T00:41:34;20.60;44.10
21355;DHT22;10835;50.148;19.760;2023-03-14T00:44:04;20.50;44.20
21355;DHT22;10835;50.148;19.760;2023-03-14T00:46:34;20.70;44.20
21355;DHT22;10835;50.148;19.760;2023-03-14T00:49:05;20.80;44.00
21355;DHT22;10835;50.148;19.760;2023-03-14T00:51:33;21.00;43.70
21355;DHT22;10835;50.148;19.760;2023-03-14T00:54:02;20.70;43.30
21355;DHT22;10835;50.148;19.760;2023-03-14T00:56:30;20.80;43.50
21355;DHT22;10835;50.148;19.760;2023-03-14T00:58:59;20.80;43.80
21355;DHT22;10835;50.148;19.760;2023-03-14T01:01:28;21.10;43.60
21355;DHT22;10835;50.148;19.760;2023-03-14T01:03:57;20.90;43.30
21355;DHT22;10835;50.148;19.760;2023-03-14T01:06:26;20.80;43.20
21355;DHT22;10835;50.148;19.760;2023-03-14T01:08:56;21.00;43.30
21355;DHT22;10835;50.148;19.760;2023-03-14T01:11:27;20.80;43.40
21355;DHT22;10835;50.148;19.760;2023-03-14T01:13:57;20.50;43.60
21355;DHT22;10835;50.148;19.760;2023-03-14T01:16:33;19.50;44.30
21355;DHT22;10835;50.148;19.760;2023-03-14T01:19:02;20.00;44.90
21355;DHT22;10835;50.148;19.760;2023-03-14T01:21:32;20.10;44.80
21355;DHT22;10835;50.148;19.760;2023-03-14T01:24:02;20.70;44.00
21355;DHT22;10835;50.148;19.760;2023-03-14T01:26:33;20.50;43.80
21355;DHT22;10835;50.148;19.760;2023-03-14T01:29:02;19.80;44.50
21355;DHT22;10835;50.148;19.760;2023-03-14T01:31:35;19.30;45.30
21355;DHT22;10835;50.148;19.760;2023-03-14T01:34:04;19.90;45.00
21355;DHT22;10835;50.148;19.760;2023-03-14T01:36:32;19.40;44.90
21355;DHT22;10835;50.148;19.760;2023-03-14T01:39:01;18.90;45.60
21355;DHT22;10835;50.148;19.760;2023-03-14T01:41:30;19.00;45.90
21355;DHT22;10835;50.148;19.760;2023-03-14T01:43:59;18.90;45.90
21355;DHT22;10835;50.148;19.760;2023-03-14T01:46:37;18.60;46.00
21355;DHT22;10835;50.148;19.760;2023-03-14T01:49:20;19.10;46.20
21355;DHT22;10835;50.148;19.760;2023-03-14T01:52:00;19.40;45.90
21355;DHT22;10835;50.148;19.760;2023-03-14T01:54:33;20.00;44.80
21355;DHT22;10835;50.148;19.760;2023-03-14T01:57:05;19.60;44.90
21355;DHT22;10835;50.148;19.760;2023-03-14T01:59:37;19.90;45.10
21355;DHT22;10835;50.148;19.760;2023-03-14T02:02:09;19.90;44.50
21355;DHT22;10835;50.148;19.760;2023-03-14T02:04:40;20.00;44.40
21355;DHT22;10835;50.148;19.760;2023-03-14T02:07:13;20.10;44.60
21355;DHT22;10835;50.148;19.760;2023-03-14T02:09:53;19.50;44.70
21355;DHT22;10835;50.148;19.760;2023-03-14T02:12:25;19.40;45.10
21355;DHT22;10835;50.148;19.760;2023-03-14T02:15:20;19.80;45.50
21355;DHT22;10835;50.148;19.760;2023-03-14T02:18:02;20.20;44.40
21355;DHT22;10835;50.148;19.760;2023-03-14T02:20:51;19.60;44.60
21355;DHT22;10835;50.148;19.760;2023-03-14T02:23:28;19.30;44.80
21355;DHT22;10835;50.148;19.760;2023-03-14T02:26:01;19.20;45.30
21355;DHT22;10835;50.148;19.760;2023-03-14T02:28:32;19.10;45.70
21355;DHT22;10835;50.148;19.760;2023-03-14T02:31:02;19.40;45.80
21355;DHT22;10835;50.148;19.760;2023-03-14T02:33:33;19.50;45.70
21355;DHT22;10835;50.148;19.760;2023-03-14T02:36:06;19.50;45.60
21355;DHT22;10835;50.148;19.760;2023-03-14T02:38:39;19.20;45.50
21355;DHT22;10835;50.148;19.760;2023-03-14T02:41:09;18.80;45.80
21355;DHT22;10835;50.148;19.760;2023-03-14T02:43:44;19.60;46.00
21355;DHT22;10835;50.148;19.760;2023-03-14T02:46:16;19.90;44.80
21355;DHT22;10835;50.148;19.760;2023-03-14T02:48:48;20.30;44.00
21355;DHT22;10835;50.148;19.760;2023-03-14T02:51:17;20.40;43.70
21355;DHT22;10835;50.148;19.760;2023-03-14T02:53:47;20.10;43.80
21355;DHT22;10835;50.148;19.760;2023-03-14T02:56:16;19.40;44.70
21355;DHT22;10835;50.148;19.760;2023-03-14T02:58:45;19.50;45.20
21355;DHT22;10835;50.148;19.760;2023-03-14T03:01:36;19.60;45.20
21355;DHT22;10835;50.148;19.760;2023-03-14T03:04:05;20.30;44.40
21355;DHT22;10835;50.148;19.760;2023-03-14T03:06:33;20.40;43.80
21355;DHT22;10835;50.148;19.760;2023-03-14T03:09:01;19.80;43.90
21355;DHT22;10835;50.148;19.760;2023-03-14T03:11:30;19.80;44.40
21355;DHT22;10835;50.148;19.760;2023-03-14T03:14:00;20.10;44.30
21355;DHT22;10835;50.148;19.760;2023-03-14T03:16:29;20.40;44.20
21355;DHT22;10835;50.148;19.760;2023-03-14T03:18:57;20.30;44.00
21355;DHT22;10835;50.148;19.760;2023-03-14T03:21:25;20.10;43.80
21355;DHT22;10835;50.148;19.760;2023-03-14T03:23:54;20.50;44.10
21355;DHT22;10835;50.148;19.760;2023-03-14T03:26:22;20.20;43.70
21355;DHT22;10835;50.148;19.760;2023-03-14T03:28:50;19.80;44.20
21355;DHT22;10835;50.148;19.760;2023-03-14T03:31:20;19.80;44.50
21355;DHT22;10835;50.148;19.760;2023-03-14T03:33:48;19.90;44.60
21355;DHT22;10835;50.148;19.760;2023-03-14T03:36:20;19.80;44.90
21355;DHT22;10835;50.148;19.760;2023-03-14T03:38:49;19.60;44.90
21355;DHT22;10835;50.148;19.760;2023-03-14T03:41:17;19.90;44.30
21355;DHT22;10835;50.148;19.760;2023-03-14T03:43:47;18.90;45.60
21355;DHT22;10835;50.148;19.760;2023-03-14T03:46:16;19.80;46.10
21355;DHT22;10835;50.148;19.760;2023-03-14T03:48:46;19.30;46.10
21355;DHT22;10835;50.148;19.760;2023-03-14T03:51:15;18.70;46.30
21355;DHT22;10835;50.148;19.760;2023-03-14T03:53:44;19.20;46.50
21355;DHT22;10835;50.148;19.760;2023-03-14T03:56:16;19.10;46.80
21355;DHT22;10835;50.148;19.760;2023-03-14T03:58:44;19.30;46.50
21355;DHT22;10835;50.148;19.760;2023-03-14T04:01:12;19.70;46.00
21355;DHT22;10835;50.148;19.760;2023-03-14T04:03:41;19.80;45.40
21355;DHT22;10835;50.148;19.760;2023-03-14T04:06:13;18.90;45.90
21355;DHT22;10835;50.148;19.760;2023-03-14T04:08:44;19.10;47.00
21355;DHT22;10835;50.148;19.760;2023-03-14T04:11:27;19.60;46.20
21355;DHT22;10835;50.148;19.760;2023-03-14T04:14:18;19.70;45.50
21355;DHT22;10835;50.148;19.760;2023-03-14T04:16:48;20.30;45.00
21355;DHT22;10835;50.148;19.760;2023-03-14T04:19:20;20.70;44.20
21355;DHT22;10835;50.148;19.760;2023-03-14T04:21:52;20.00;44.40
21355;DHT22;10835;50.148;19.760;2023-03-14T04:24:23;20.10;44.60
21355;DHT22;10835;50.148;19.760;2023-03-14T04:26:52;19.20;45.30
21355;DHT22;10835;50.148;19.760;2023-03-14T04:29:20;20.20;44.60
21355;DHT22;10835;50.148;19.760;2023-03-14T04:31:49;19.90;44.80
21355;DHT22;10835;50.148;19.760;2023-03-14T04:34:17;19.50;45.00
21355;DHT22;10835;50.148;19.760;2023-03-14T04:36:52;19.80;45.30
21355;DHT22;10835;50.148;19.760;2023-03-14T04:39:26;19.90;44.80
21355;DHT22;10835;50.148;19.760;2023-03-14T04:42:06;19.40;45.00
21355;DHT22;10835;50.148;19.760;2023-03-14T04:44:36;19.60;45.20
21355;DHT22;10835;50.148;19.760;2023-03-14T04:47:06;19.90;45.60
21355;DHT22;10835;50.148;19.760;2023-03-14T04:49:34;19.60;45.20
21355;DHT22;10835;50.148;19.760;2023-03-14T04:52:05;20.30;44.90
21355;DHT22;10835;50.148;19.760;2023-03-14T04:54:35;20.10;44.80
21355;DHT22;10835;50.148;19.760;2023-03-14T04:57:04;20.40;44.30
21355;DHT22;10835;50.148;19.760;2023-03-14T04:59:37;21.00;43.40
21355;DHT22;10835;50.148;19.760;2023-03-14T05:02:35;21.10;42.90
21355;DHT22;10835;50.148;19.760;2023-03-14T05:05:14;21.00;42.60
21355;DHT22;10835;50.148;19.760;2023-03-14T05:08:01;21.10;42.30
21355;DHT22;10835;50.148;19.760;2023-03-14T05:10:42;20.60;42.90
21355;DHT22;10835;50.148;19.760;2023-03-14T05:13:30;21.00;42.50
21355;DHT22;10835;50.148;19.760;2023-03-14T05:16:24;20.30;43.80
21355;DHT22;10835;50.148;19.760;2023-03-14T05:19:00;19.90;43.70
21355;DHT22;10835;50.148;19.760;2023-03-14T05:21:47;20.30;43.90
21355;DHT22;10835;50.148;19.760;2023-03-14T05:24:16;20.70;43.70
21355;DHT22;10835;50.148;19.760;2023-03-14T05:26:58;21.10;43.30
21355;DHT22;10835;50.148;19.760;2023-03-14T05:29:38;21.40;42.80
21355;DHT22;10835;50.148;19.760;2023-03-14T05:32:22;21.40;42.40
21355;DHT22;10835;50.148;19.760;2023-03-14T05:35:09;20.90;42.90
21355;DHT22;10835;50.148;19.760;2023-03-14T05:38:00;21.50;42.80
21355;DHT22;10835;50.148;19.760;2023-03-14T05:40:32;20.20;43.00
21355;DHT22;10835;50.148;19.760;2023-03-14T05:43:06;20.30;45.10
21355;DHT22;10835;50.148;19.760;2023-03-14T05:45:52;20.80;44.60
21355;DHT22;10835;50.148;19.760;2023-03-14T05:48:43;21.00;44.60
21355;DHT22;10835;50.148;19.760;2023-03-14T05:51:20;20.30;44.40
21355;DHT22;10835;50.148;19.760;2023-03-14T05:54:21;20.00;45.20
21355;DHT22;10835;50.148;19.760;2023-03-14T05:57:26;20.70;44.40
21355;DHT22;10835;50.148;19.760;2023-03-14T06:00:13;20.40;45.30
21355;DHT22;10835;50.148;19.760;2023-03-14T06:03:17;21.10;44.90
21355;DHT22;10835;50.148;19.760;2023-03-14T06:05:49;21.50;44.00
21355;DHT22;10835;50.148;19.760;2023-03-14T06:08:20;22.00;43.60
21355;DHT22;10835;50.148;19.760;2023-03-14T06:10:48;22.30;42.30
21355;DHT22;10835;50.148;19.760;2023-03-14T06:13:20;22.20;42.60
21355;DHT22;10835;50.148;19.760;2023-03-14T06:15:48;22.00;42.60
21355;DHT22;10835;50.148;19.760;2023-03-14T06:18:16;22.40;42.50
21355;DHT22;10835;50.148;19.760;2023-03-14T06:20:45;22.80;41.60
21355;DHT22;10835;50.148;19.760;2023-03-14T06:23:21;23.00;41.00
21355;DHT22;10835;50.148;19.760;2023-03-14T06:25:50;23.00;40.80
21355;DHT22;10835;50.148;19.760;2023-03-14T06:28:21;23.10;40.60
21355;DHT22;10835;50.148;19.760;2023-03-14T06:30:52;23.00;40.90
21355;DHT22;10835;50.148;19.760;2023-03-14T06:33:21;23.40;40.40
21355;DHT22;10835;50.148;19.760;2023-03-14T06:35:49;22.90;40.60
21355;DHT22;10835;50.148;19.760;2023-03-14T06:38:17;22.70;40.60
21355;DHT22;10835;50.148;19.760;2023-03-14T06:40:46;22.90;41.90
21355;DHT22;10835;50.148;19.760;2023-03-14T06:43:21;22.50;41.50
21355;DHT22;10835;50.148;19.760;2023-03-14T06:45:51;21.80;42.80
21355;DHT22;10835;50.148;19.760;2023-03-14T06:48:19;21.70;43.30
21355;DHT22;10835;50.148;19.760;2023-03-14T06:50:51;21.60;43.60
21355;DHT22;10835;50.148;19.760;2023-03-14T06:53:22;21.50;44.10
21355;DHT22;10835;50.148;19.760;2023-03-14T06:55:50;22.00;43.50
21355;DHT22;10835;50.148;19.760;2023-03-14T06:58:21;22.80;42.60
21355;DHT22;10835;50.148;19.760;2023-03-14T07:00:49;23.40;42.50
21355;DHT22;10835;50.148;19.760;2023-03-14T07:03:23;23.90;41.00
21355;DHT22;10835;50.148;19.760;2023-03-14T07:05:54;24.40;39.90
21355;DHT22;10835;50.148;19.760;2023-03-14T07:08:22;24.80;39.00
21355;DHT22;10835;50.148;19.760;2023-03-14T07:10:50;25.10;38.00
21355;DHT22;10835;50.148;19.760;2023-03-14T07:13:18;25.30;38.20
21355;DHT22;10835;50.148;19.760;2023-03-14T07:16:07;25.50;37.30
21355;DHT22;10835;50.148;19.760;2023-03-14T07:18:37;25.70;36.90
21355;DHT22;10835;50.148;19.760;2023-03-14T07:21:06;25.80;37.40
21355;DHT22;10835;50.148;19.760;2023-03-14T07:23:37;25.90;36.70
21355;DHT22;10835;50.148;19.760;2023-03-14T07:26:06;26.00;36.50
21355;DHT22;10835;50.148;19.760;2023-03-14T07:28:42;26.10;36.80
21355;DHT22;10835;50.148;19.760;2023-03-14T07:31:15;26.20;36.10
21355;DHT22;10835;50.148;19.760;2023-03-14T07:33:44;26.20;36.80
21355;DHT22;10835;50.148;19.760;2023-03-14T07:36:12;26.40;36.30
21355;DHT22;10835;50.148;19.760;2023-03-14T07:38:43;26.50;35.90
21355;DHT22;10835;50.148;19.760;2023-03-14T07:41:26;26.50;36.20
21355;DHT22;10835;50.148;19.760;2023-03-14T07:44:21;26.60;36.20
21355;DHT22;10835;50.148;19.760;2023-03-14T07:46:50;26.80;37.00
21355;DHT22;10835;50.148;19.760;2023-03-14T07:49:19;26.90;37.30
21355;DHT22;10835;50.148;19.760;2023-03-14T07:51:47;27.00;35.20
21355;DHT22;10835;50.148;19.760;2023-03-14T07:54:16;27.00;35.00
21355;DHT22;10835;50.148;19.760;2023-03-14T07:56:46;26.90;34.90
21355;DHT22;10835;50.148;19.760;2023-03-14T07:59:14;26.80;36.20
21355;DHT22;10835;50.148;19.760;2023-03-14T08:01:43;26.30;35.50
21355;DHT22;10835;50.148;19.760;2023-03-14T08:04:15;26.30;35.70
21355;DHT22;10835;50.148;19.760;2023-03-14T08:06:43;26.20;36.20
21355;DHT22;10835;50.148;19.760;2023-03-14T08:09:14;26.40;36.60
21355;DHT22;10835;50.148;19.760;2023-03-14T08:11:42;25.70;36.20
21355;DHT22;10835;50.148;19.760;2023-03-14T08:14:10;26.00;37.90
21355;DHT22;10835;50.148;19.760;2023-03-14T08:16:38;26.00;36.90
21355;DHT22;10835;50.148;19.760;2023-03-14T08:19:07;25.90;37.20
21355;DHT22;10835;50.148;19.760;2023-03-14T08:21:36;25.40;37.00
21355;DHT22;10835;50.148;19.760;2023-03-14T08:24:05;24.90;38.10
21355;DHT22;10835;50.148;19.760;2023-03-14T08:26:33;25.20;37.50
21355;DHT22;10835;50.148;19.760;2023-03-14T08:29:01;25.30;37.30
21355;DHT22;10835;50.148;19.760;2023-03-14T08:31:31;25.20;37.20
21355;DHT22;10835;50.148;19.760;2023-03-14T08:33:59;25.20;36.90
21355;DHT22;10835;50.148;19.760;2023-03-14T08:36:28;25.00;37.60
21355;DHT22;10835;50.148;19.760;2023-03-14T08:38:59;26.00;37.10
21355;DHT22;10835;50.148;19.760;2023-03-14T08:41:27;26.30;37.00
21355;DHT22;10835;50.148;19.760;2023-03-14T08:43:55;26.90;35.50
21355;DHT22;10835;50.148;19.760;2023-03-14T08:46:24;26.80;36.30
21355;DHT22;10835;50.148;19.760;2023-03-14T08:48:52;26.60;35.30
21355;DHT22;10835;50.148;19.760;2023-03-14T08:51:20;25.90;34.80
21355;DHT22;10835;50.148;19.760;2023-03-14T08:53:49;25.50;36.20
21355;DHT22;10835;50.148;19.760;2023-03-14T08:56:18;25.40;36.40
21355;DHT22;10835;50.148;19.760;2023-03-14T08:58:46;25.00;36.10
21355;DHT22;10835;50.148;19.760;2023-03-14T09:01:14;24.80;37.50
21355;DHT22;10835;50.148;19.760;2023-03-14T09:03:43;24.50;36.80
21355;DHT22;10835;50.148;19.760;2023-03-14T09:06:13;24.80;37.70
21355;DHT22;10835;50.148;19.760;2023-03-14T09:08:41;24.80;37.40
21355;DHT22;10835;50.148;19.760;2023-03-14T09:11:09;24.20;37.40
21355;DHT22;10835;50.148;19.760;2023-03-14T09:13:39;23.60;38.60
21355;DHT22;10835;50.148;19.760;2023-03-14T09:16:08;23.10;38.70
21355;DHT22;10835;50.148;19.760;2023-03-14T09:18:36;22.70;39.70
21355;DHT22;10835;50.148;19.760;2023-03-14T09:21:05;22.40;40.40
21355;DHT22;10835;50.148;19.760;2023-03-14T09:23:33;22.50;40.90
21355;DHT22;10835;50.148;19.760;2023-03-14T09:26:02;22.40;41.20
21355;DHT22;10835;50.148;19.760;2023-03-14T09:28:30;22.60;41.30
21355;DHT22;10835;50.148;19.760;2023-03-14T09:31:05;22.40;41.00
21355;DHT22;10835;50.148;19.760;2023-03-14T09:33:34;22.10;41.20
21355;DHT22;10835;50.148;19.760;2023-03-14T09:36:03;21.90;41.70
21355;DHT22;10835;50.148;19.760;2023-03-14T09:38:31;21.90;42.40
21355;DHT22;10835;50.148;19.760;2023-03-14T09:41:01;22.30;42.40
21355;DHT22;10835;50.148;19.760;2023-03-14T09:43:32;22.30;41.70
21355;DHT22;10835;50.148;19.760;2023-03-14T09:46:03;22.40;40.60
21355;DHT22;10835;50.148;19.760;2023-03-14T09:48:34;22.40;41.00
21355;DHT22;10835;50.148;19.760;2023-03-14T09:51:05;22.40;40.70
21355;DHT22;10835;50.148;19.760;2023-03-14T09:53:40;22.40;42.30
21355;DHT22;10835;50.148;19.760;2023-03-14T09:56:13;22.70;41.20
21355;DHT22;10835;50.148;19.760;2023-03-14T09:58:45;22.90;40.20
21355;DHT22;10835;50.148;19.760;2023-03-14T10:01:22;22.80;41.20
21355;DHT22;10835;50.148;19.760;2023-03-14T10:03:52;22.90;41.00
21355;DHT22;10835;50.148;19.760;2023-03-14T10:06:24;22.90;41.30
21355;DHT22;10835;50.148;19.760;2023-03-14T10:08:54;23.00;40.50
21355;DHT22;10835;50.148;19.760;2023-03-14T10:11:24;22.70;41.20
21355;DHT22;10835;50.148;19.760;2023-03-14T10:14:04;23.20;41.40
21355;DHT22;10835;50.148;19.760;2023-03-14T10:16:36;23.40;40.80
21355;DHT22;10835;50.148;19.760;2023-03-14T10:19:07;23.10;40.80
21355;DHT22;10835;50.148;19.760;2023-03-14T10:21:37;22.80;41.00
21355;DHT22;10835;50.148;19.760;2023-03-14T10:24:10;22.50;41.80
21355;DHT22;10835;50.148;19.760;2023-03-14T10:26:48;22.60;42.20
21355;DHT22;10835;50.148;19.760;2023-03-14T10:29:17;22.60;41.80
21355;DHT22;10835;50.148;19.760;2023-03-14T10:31:51;22.20;41.60
21355;DHT22;10835;50.148;19.760;2023-03-14T10:34:24;22.20;41.80
21355;DHT22;10835;50.148;19.760;2023-03-14T10:36:54;22.50;42.40
21355;DHT22;10835;50.148;19.760;2023-03-14T10:39:37;22.70;41.60
21355;DHT22;10835;50.148;19.760;2023-03-14T10:42:14;22.90;41.50
21355;DHT22;10835;50.148;19.760;2023-03-14T10:44:44;23.20;41.00
21355;DHT22;10835;50.148;19.760;2023-03-14T10:47:18;23.50;40.80
21355;DHT22;10835;50.148;19.760;2023-03-14T10:49:47;23.30;40.70
21355;DHT22;10835;50.148;19.760;2023-03-14T10:52:20;23.10;41.10
21355;DHT22;10835;50.148;19.760;2023-03-14T10:55:11;23.20;42.30
21355;DHT22;10835;50.148;19.760;2023-03-14T10:57:40;22.90;41.20
21355;DHT22;10835;50.148;19.760;2023-03-14T11:00:15;22.90;42.20
21355;DHT22;10835;50.148;19.760;2023-03-14T11:03:03;22.90;42.40
21355;DHT22;10835;50.148;19.760;2023-03-14T11:05:38;22.70;42.30
21355;DHT22;10835;50.148;19.760;2023-03-14T11:08:12;22.50;42.20
21355;DHT22;10835;50.148;19.760;2023-03-14T11:10:44;22.30;43.10
21355;DHT22;10835;50.148;19.760;2023-03-14T11:13:18;22.40;42.90
21355;DHT22;10835;50.148;19.760;2023-03-14T11:15:53;22.20;43.30
21355;DHT22;10835;50.148;19.760;2023-03-14T11:18:43;22.50;44.00
21355;DHT22;10835;50.148;19.760;2023-03-14T11:21:20;22.30;43.70
21355;DHT22;10835;50.148;19.760;2023-03-14T11:23:56;22.30;43.50
21355;DHT22;10835;50.148;19.760;2023-03-14T11:26:31;22.20;43.60
21355;DHT22;10835;50.148;19.760;2023-03-14T11:29:16;21.80;44.30
21355;DHT22;10835;50.148;19.760;2023-03-14T11:31:47;21.70;44.30
21355;DHT22;10835;50.148;19.760;2023-03-14T11:34:22;21.90;44.10
21355;DHT22;10835;50.148;19.760;2023-03-14T11:36:59;22.00;43.80
21355;DHT22;10835;50.148;19.760;2023-03-14T11:39:36;21.90;44.10
21355;DHT22;10835;50.148;19.760;2023-03-14T11:42:11;22.20;43.60
21355;DHT22;10835;50.148;19.760;2023-03-14T11:44:41;22.30;43.10
21355;DHT22;10835;50.148;19.760;2023-03-14T11:47:15;22.40;42.50
21355;DHT22;10835;50.148;19.760;2023-03-14T11:49:50;22.40;42.20
21355;DHT22;10835;50.148;19.760;2023-03-14T11:52:23;21.70;43.30
21355;DHT22;10835;50.148;19.760;2023-03-14T11:54:56;21.80;44.10
21355;DHT22;10835;50.148;19.760;2023-03-14T11:57:26;21.80;43.90
21355;DHT22;10835;50.148;19.760;2023-03-14T11:59:59;21.70;44.30
21355;DHT22;10835;50.148;19.760;2023-03-14T12:02:45;21.70;44.20
21355;DHT22;10835;50.148;19.760;2023-03-14T12:05:46;21.80;43.80
21355;DHT22;10835;50.148;19.760;2023-03-14T12:11:31;21.70;44.50
21355;DHT22;10835;50.148;19.760;2023-03-14T12:14:01;21.80;44.30
21355;DHT22;10835;50.148;19.760;2023-03-14T12:16:37;21.80;44.40
21355;DHT22;10835;50.148;19.760;2023-03-14T12:19:38;21.50;45.40
21355;DHT22;10835;50.148;19.760;2023-03-14T12:22:28;21.60;45.20
21355;DHT22;10835;50.148;19.760;2023-03-14T12:25:04;21.70;45.00
21355;DHT22;10835;50.148;19.760;2023-03-14T12:27:47;21.80;44.50
21355;DHT22;10835;50.148;19.760;2023-03-14T12:30:28;21.90;44.30
21355;DHT22;10835;50.148;19.760;2023-03-14T12:33:20;21.90;43.70
21355;DHT22;10835;50.148;19.760;2023-03-14T12:35:50;21.80;44.20
21355;DHT22;10835;50.148;19.760;2023-03-14T12:38:25;22.60;43.50
21355;DHT22;10835;50.148;19.760;2023-03-14T12:41:00;22.50;43.20
21355;DHT22;10835;50.148;19.760;2023-03-14T12:43:31;22.90;42.50
21355;DHT22;10835;50.148;19.760;2023-03-14T12:46:19;22.80;42.80
21355;DHT22;10835;50.148;19.760;2023-03-14T12:48:49;23.60;42.80
21355;DHT22;10835;50.148;19.760;2023-03-14T12:51:20;23.70;41.80
21355;DHT22;10835;50.148;19.760;2023-03-14T12:54:12;24.10;42.40
21355;DHT22;10835;50.148;19.760;2023-03-14T12:56:56;24.60;41.20
21355;DHT22;10835;50.148;19.760;2023-03-14T12:59:32;24.50;41.50
21355;DHT22;10835;50.148;19.760;2023-03-14T13:02:24;24.90;40.40
21355;DHT22;10835;50.148;19.760;2023-03-14T13:05:05;24.60;40.60
21355;DHT22;10835;50.148;19.760;2023-03-14T13:08:04;24.70;41.20
21355;DHT22;10835;50.148;19.760;2023-03-14T13:10:42;24.60;40.80
21355;DHT22;10835;50.148;19.760;2023-03-14T13:13:20;24.30;41.30
21355;DHT22;10835;50.148;19.760;2023-03-14T13:15:53;24.70;40.70
21355;DHT22;10835;50.148;19.760;2023-03-14T13:18:29;24.50;40.70
21355;DHT22;10835;50.148;19.760;2023-03-14T13:21:01;24.70;40.80
21355;DHT22;10835;50.148;19.760;2023-03-14T13:23:32;24.50;39.80
21355;DHT22;10835;50.148;19.760;2023-03-14T13:26:02;24.50;40.70
21355;DHT22;10835;50.148;19.760;2023-03-14T13:28:31;24.50;40.30
21355;DHT22;10835;50.148;19.760;2023-03-14T13:31:02;24.60;40.20
21355;DHT22;10835;50.148;19.760;2023-03-14T13:33:33;24.60;40.50
21355;DHT22;10835;50.148;19.760;2023-03-14T13:36:04;25.10;40.40
21355;DHT22;10835;50.148;19.760;2023-03-14T13:38:35;25.40;40.50
21355;DHT22;10835;50.148;19.760;2023-03-14T13:41:06;25.60;39.20
21355;DHT22;10835;50.148;19.760;2023-03-14T13:43:38;25.80;39.20
21355;DHT22;10835;50.148;19.760;2023-03-14T13:46:13;25.80;38.80
21355;DHT22;10835;50.148;19.760;2023-03-14T13:48:44;25.30;39.30
21355;DHT22;10835;50.148;19.760;2023-03-14T13:51:15;25.40;39.80
21355;DHT22;10835;50.148;19.760;2023-03-14T13:53:44;25.30;39.80
21355;DHT22;10835;50.148;19.760;2023-03-14T13:56:18;24.70;40.20
21355;DHT22;10835;50.148;19.760;2023-03-14T13:58:54;24.60;40.90
21355;DHT22;10835;50.148;19.760;2023-03-14T14:01:25;23.90;41.30
21355;DHT22;10835;50.148;19.760;2023-03-14T14:03:55;23.40;42.30
21355;DHT22;10835;50.148;19.760;2023-03-14T14:06:30;22.60;43.30
21355;DHT22;10835;50.148;19.760;2023-03-14T14:09:00;22.00;45.30
21355;DHT22;10835;50.148;19.760;2023-03-14T14:11:50;21.90;46.50
21355;DHT22;10835;50.148;19.760;2023-03-14T14:14:41;21.50;46.70
21355;DHT22;10835;50.148;19.760;2023-03-14T14:17:12;21.30;47.30
21355;DHT22;10835;50.148;19.760;2023-03-14T14:19:42;21.40;47.70
21355;DHT22;10835;50.148;19.760;2023-03-14T14:22:12;21.50;47.40
21355;DHT22;10835;50.148;19.760;2023-03-14T14:24:40;21.40;47.60
21355;DHT22;10835;50.148;19.760;2023-03-14T14:27:14;21.10;48.20
21355;DHT22;10835;50.148;19.760;2023-03-14T14:29:44;21.10;48.50
21355;DHT22;10835;50.148;19.760;2023-03-14T14:32:24;21.40;48.20
21355;DHT22;10835;50.148;19.760;2023-03-14T14:35:01;21.20;48.20
21355;DHT22;10835;50.148;19.760;2023-03-14T14:37:32;21.40;48.00
21355;DHT22;10835;50.148;19.760;2023-03-14T14:40:07;21.50;48.00
21355;DHT22;10835;50.148;19.760;2023-03-14T14:42:41;21.50;48.00
21355;DHT22;10835;50.148;19.760;2023-03-14T14:45:14;21.50;48.30
21355;DHT22;10835;50.148;19.760;2023-03-14T14:47:51;21.40;48.10
21355;DHT22;10835;50.148;19.760;2023-03-14T14:50:28;21.70;48.30
21355;DHT22;10835;50.148;19.760;2023-03-14T14:52:58;21.70;48.00
21355;DHT22;10835;50.148;19.760;2023-03-14T14:55:32;21.60;47.90
21355;DHT22;10835;50.148;19.760;2023-03-14T14:58:18;22.00;47.80
21355;DHT22;10835;50.148;19.760;2023-03-14T15:00:55;21.50;48.50
21355;DHT22;10835;50.148;19.760;2023-03-14T15:03:27;21.40;48.50
21355;DHT22;10835;50.148;19.760;2023-03-14T15:05:56;21.40;48.90
21355;DHT22;10835;50.148;19.760;2023-03-14T15:08:28;21.40;48.90
21355;DHT22;10835;50.148;19.760;2023-03-14T15:10:59;21.30;48.90
21355;DHT22;10835;50.148;19.760;2023-03-14T15:13:29;21.00;49.30
21355;DHT22;10835;50.148;19.760;2023-03-14T15:15:57;21.40;49.10
21355;DHT22;10835;50.148;19.760;2023-03-14T15:18:29;21.20;49.20
21355;DHT22;10835;50.148;19.760;2023-03-14T15:20:58;21.10;49.70
21355;DHT22;10835;50.148;19.760;2023-03-14T15:23:27;21.60;49.10
21355;DHT22;10835;50.148;19.760;2023-03-14T15:25:56;21.80;49.00
21355;DHT22;10835;50.148;19.760;2023-03-14T15:28:25;22.30;47.90
21355;DHT22;10835;50.148;19.760;2023-03-14T15:30:58;22.10;47.40
21355;DHT22;10835;50.148;19.760;2023-03-14T15:33:27;22.30;47.50
21355;DHT22;10835;50.148;19.760;2023-03-14T15:35:55;22.90;46.80
21355;DHT22;10835;50.148;19.760;2023-03-14T15:38:24;23.10;45.80
21355;DHT22;10835;50.148;19.760;2023-03-14T15:40:53;22.60;46.20
21355;DHT22;10835;50.148;19.760;2023-03-14T15:43:21;22.70;46.80
21355;DHT22;10835;50.148;19.760;2023-03-14T15:45:49;22.60;47.10
21355;DHT22;10835;50.148;19.760;2023-03-14T15:48:20;23.10;46.20
21355;DHT22;10835;50.148;19.760;2023-03-14T15:50:50;23.10;45.90
21355;DHT22;10835;50.148;19.760;2023-03-14T15:53:18;23.40;45.60
21355;DHT22;10835;50.148;19.760;2023-03-14T15:55:46;23.70;46.00